createdAt,value
2017-07-08T00:00:42.420Z,1006.9
2017-07-08T00:01:43.792Z,1006.8
2017-07-08T00:02:45.166Z,1006.8
2017-07-08T00:03:46.541Z,1006.9
2017-07-08T00:04:47.919Z,1006.9
2017-07-08T00:05:49.294Z,1006.9
2017-07-08T00:06:50.667Z,1006.8
2017-07-08T00:07:52.039Z,1006.8
2017-07-08T00:08:53.409Z,1006.8
2017-07-08T00:09:54.783Z,1006.7
2017-07-08T00:10:56.159Z,1006.7
2017-07-08T00:11:57.531Z,1006.7
2017-07-08T00:12:58.904Z,1006.8
2017-07-08T00:14:00.278Z,1006.7
2017-07-08T00:15:01.650Z,1006.7
2017-07-08T00:16:03.023Z,1006.7
2017-07-08T00:17:04.395Z,1006.7
2017-07-08T00:18:05.774Z,1006.7
2017-07-08T00:19:07.143Z,1006.7
2017-07-08T00:20:08.533Z,1006.7
2017-07-08T00:21:09.911Z,1006.7
2017-07-08T00:22:11.282Z,1006.7
2017-07-08T00:23:12.652Z,1006.7
2017-07-08T00:24:14.027Z,1006.7
2017-07-08T00:25:15.405Z,1006.7
2017-07-08T00:26:16.775Z,1006.8
2017-07-08T00:27:18.147Z,1006.7
2017-07-08T00:28:19.521Z,1006.7
2017-07-08T00:29:20.891Z,1006.7
2017-07-08T00:30:22.268Z,1006.7
2017-07-08T00:31:23.639Z,1006.7
2017-07-08T00:32:25.013Z,1006.7
2017-07-08T00:33:26.388Z,1006.7
2017-07-08T00:34:27.759Z,1006.7
2017-07-08T00:35:29.131Z,1006.7
2017-07-08T00:36:30.504Z,1006.7
2017-07-08T00:37:31.876Z,1006.7
2017-07-08T00:38:33.249Z,1006.7
2017-07-08T00:39:34.621Z,1006.7
2017-07-08T00:40:35.995Z,1006.7
2017-07-08T00:41:37.372Z,1006.7
2017-07-08T00:42:38.741Z,1006.7
2017-07-08T00:43:40.113Z,1006.7
2017-07-08T00:44:41.487Z,1006.7
2017-07-08T00:45:42.858Z,1006.7
2017-07-08T00:46:44.237Z,1006.7
2017-07-08T00:47:45.610Z,1006.6
2017-07-08T00:48:46.983Z,1006.7
2017-07-08T00:49:48.360Z,1006.7
2017-07-08T00:50:49.734Z,1006.7
2017-07-08T00:51:51.098Z,1006.7
2017-07-08T00:52:52.475Z,1006.7
2017-07-08T00:53:53.847Z,1006.7
2017-07-08T00:54:55.221Z,1006.7
2017-07-08T00:55:56.597Z,1006.7
2017-07-08T00:56:57.968Z,1006.7
2017-07-08T00:57:59.341Z,1006.7
2017-07-08T00:59:00.714Z,1006.7
2017-07-08T01:00:02.090Z,1006.7
2017-07-08T01:01:03.460Z,1006.7
2017-07-08T01:02:04.832Z,1006.7
2017-07-08T01:03:06.207Z,1006.6
2017-07-08T01:04:07.579Z,1006.6
2017-07-08T01:05:08.954Z,1006.6
2017-07-08T01:06:10.327Z,1006.6
2017-07-08T01:07:11.716Z,1006.6
2017-07-08T01:08:13.090Z,1006.6
2017-07-08T01:09:14.464Z,1006.6
2017-07-08T01:10:15.842Z,1006.6
2017-07-08T01:11:17.214Z,1006.5
2017-07-08T01:12:18.586Z,1006.5
2017-07-08T01:13:19.959Z,1006.5
2017-07-08T01:14:21.337Z,1006.5
2017-07-08T01:15:22.711Z,1006.5
2017-07-08T01:16:24.083Z,1006.5
2017-07-08T01:17:25.461Z,1006.4
2017-07-08T01:18:26.834Z,1006.4
2017-07-08T01:19:28.208Z,1006.4
2017-07-08T01:20:29.581Z,1006.4
2017-07-08T01:21:30.955Z,1006.4
2017-07-08T01:22:32.334Z,1006.4
2017-07-08T01:23:33.701Z,1006.5
2017-07-08T01:24:35.075Z,1006.5
2017-07-08T01:25:36.448Z,1006.5
2017-07-08T01:26:37.824Z,1006.5
2017-07-08T01:27:39.200Z,1006.5
2017-07-08T01:28:40.578Z,1006.5
2017-07-08T01:29:41.947Z,1006.5
2017-07-08T01:30:43.319Z,1006.5
2017-07-08T01:31:44.691Z,1006.5
2017-07-08T01:32:46.066Z,1006.5
2017-07-08T01:33:47.433Z,1006.5
2017-07-08T01:34:48.812Z,1006.5
2017-07-08T01:35:50.189Z,1006.5
2017-07-08T01:36:51.565Z,1006.4
2017-07-08T01:37:52.997Z,1006.4
2017-07-08T01:38:54.373Z,1006.4
2017-07-08T01:39:55.748Z,1006.4
2017-07-08T01:40:57.117Z,1006.4
2017-07-08T01:41:58.492Z,1006.4
2017-07-08T01:42:59.865Z,1006.4
2017-07-08T01:44:01.236Z,1006.4
2017-07-08T01:45:02.610Z,1006.4
2017-07-08T01:46:03.983Z,1006.4
2017-07-08T01:47:05.358Z,1006.4
2017-07-08T01:48:06.730Z,1006.4
2017-07-08T01:49:08.105Z,1006.4
2017-07-08T01:50:09.482Z,1006.4
2017-07-08T01:51:10.857Z,1006.4
2017-07-08T01:52:12.232Z,1006.4
2017-07-08T01:53:13.614Z,1006.4
2017-07-08T01:54:14.975Z,1006.4
2017-07-08T01:55:16.349Z,1006.4
2017-07-08T01:56:17.726Z,1006.4
2017-07-08T01:57:19.098Z,1006.4
2017-07-08T01:58:20.474Z,1006.4
2017-07-08T01:59:21.847Z,1006.4
2017-07-08T02:00:23.220Z,1006.4
2017-07-08T02:01:24.593Z,1006.4
2017-07-08T02:02:25.967Z,1006.4
2017-07-08T02:03:27.338Z,1006.4
2017-07-08T02:04:28.711Z,1006.4
2017-07-08T02:05:30.081Z,1006.4
2017-07-08T02:06:31.456Z,1006.4
2017-07-08T02:07:32.828Z,1006.4
2017-07-08T02:08:34.200Z,1006.4
2017-07-08T02:09:35.572Z,1006.4
2017-07-08T02:10:36.948Z,1006.4
2017-07-08T02:11:38.325Z,1006.4
2017-07-08T02:12:39.698Z,1006.5
2017-07-08T02:13:41.074Z,1006.5
2017-07-08T02:14:42.448Z,1006.5
2017-07-08T02:15:43.821Z,1006.5
2017-07-08T02:16:45.188Z,1006.6
2017-07-08T02:17:46.564Z,1006.6
2017-07-08T02:18:47.938Z,1006.6
2017-07-08T02:19:49.312Z,1006.6
2017-07-08T02:20:50.685Z,1006.6
2017-07-08T02:21:52.060Z,1006.5
2017-07-08T02:22:53.432Z,1006.6
2017-07-08T02:23:54.803Z,1006.7
2017-07-08T02:24:56.178Z,1006.7
2017-07-08T02:25:57.551Z,1006.6
2017-07-08T02:26:58.924Z,1006.7
2017-07-08T02:28:00.299Z,1006.7
2017-07-08T02:29:01.671Z,1006.7
2017-07-08T02:30:03.042Z,1006.7
2017-07-08T02:31:04.418Z,1006.7
2017-07-08T02:32:05.789Z,1006.7
2017-07-08T02:33:07.161Z,1006.7
2017-07-08T02:34:08.540Z,1006.7
2017-07-08T02:35:09.909Z,1006.7
2017-07-08T02:36:11.284Z,1006.7
2017-07-08T02:37:12.659Z,1006.7
2017-07-08T02:38:14.038Z,1006.7
2017-07-08T02:39:15.406Z,1006.7
2017-07-08T02:40:16.781Z,1006.7
2017-07-08T02:41:18.161Z,1006.7
2017-07-08T02:42:19.539Z,1006.7
2017-07-08T02:43:20.910Z,1006.7
2017-07-08T02:44:22.280Z,1006.7
2017-07-08T02:45:23.654Z,1006.6
2017-07-08T02:46:25.025Z,1006.6
2017-07-08T02:47:26.399Z,1006.6
2017-07-08T02:48:27.773Z,1006.6
2017-07-08T02:49:29.152Z,1006.6
2017-07-08T02:50:30.524Z,1006.6
2017-07-08T02:51:31.896Z,1006.6
2017-07-08T02:52:33.269Z,1006.6
2017-07-08T02:53:34.641Z,1006.6
2017-07-08T02:54:36.013Z,1006.6
2017-07-08T02:55:37.390Z,1006.6
2017-07-08T02:56:38.763Z,1006.6
2017-07-08T02:57:40.138Z,1006.5
2017-07-08T02:58:41.515Z,1006.5
2017-07-08T02:59:42.890Z,1006.5
2017-07-08T03:00:44.262Z,1006.6
2017-07-08T03:01:45.627Z,1006.6
2017-07-08T03:02:47.008Z,1006.6
2017-07-08T03:03:48.386Z,1006.6
2017-07-08T03:04:49.760Z,1006.5
2017-07-08T03:05:51.133Z,1006.6
2017-07-08T03:06:52.508Z,1006.5
2017-07-08T03:07:53.885Z,1006.5
2017-07-08T03:08:55.255Z,1006.5
2017-07-08T03:09:56.628Z,1006.6
2017-07-08T03:10:58.001Z,1006.6
2017-07-08T03:11:59.379Z,1006.6
2017-07-08T03:13:00.752Z,1006.6
2017-07-08T03:14:02.123Z,1006.6
2017-07-08T03:15:03.494Z,1006.6
2017-07-08T03:16:04.872Z,1006.6
2017-07-08T03:17:06.245Z,1006.6
2017-07-08T03:18:07.617Z,1006.6
2017-07-08T03:19:08.998Z,1006.6
2017-07-08T03:20:10.366Z,1006.7
2017-07-08T03:21:11.736Z,1006.7
2017-07-08T03:22:13.109Z,1006.6
2017-07-08T03:23:14.483Z,1006.7
2017-07-08T03:24:15.856Z,1006.6
2017-07-08T03:25:17.232Z,1006.7
2017-07-08T03:26:18.604Z,1006.7
2017-07-08T03:27:19.978Z,1006.7
2017-07-08T03:28:21.351Z,1006.7
2017-07-08T03:29:22.725Z,1006.8
2017-07-08T03:30:24.101Z,1006.7
2017-07-08T03:31:25.475Z,1006.7
2017-07-08T03:32:26.847Z,1006.7
2017-07-08T03:33:28.223Z,1006.7
2017-07-08T03:34:29.594Z,1006.7
2017-07-08T03:35:30.968Z,1006.7
2017-07-08T03:36:32.345Z,1006.7
2017-07-08T03:37:33.714Z,1006.7
2017-07-08T03:38:35.088Z,1006.7
2017-07-08T03:39:36.466Z,1006.7
2017-07-08T03:40:37.837Z,1006.7
2017-07-08T03:41:39.214Z,1006.7
2017-07-08T03:42:40.587Z,1006.7
2017-07-08T03:43:41.966Z,1006.7
2017-07-08T03:44:43.337Z,1006.7
2017-07-08T03:45:44.711Z,1006.8
2017-07-08T03:46:46.089Z,1006.7
2017-07-08T03:47:47.460Z,1006.7
2017-07-08T03:48:48.844Z,1006.7
2017-07-08T03:49:50.215Z,1006.7
2017-07-08T03:50:51.590Z,1006.7
2017-07-08T03:51:52.965Z,1006.7
2017-07-08T03:52:54.341Z,1006.6
2017-07-08T03:53:55.717Z,1006.7
2017-07-08T03:54:57.089Z,1006.7
2017-07-08T03:55:58.463Z,1006.7
2017-07-08T03:56:59.839Z,1006.7
2017-07-08T03:58:01.210Z,1006.7
2017-07-08T03:59:02.586Z,1006.7
2017-07-08T04:00:03.963Z,1006.7
2017-07-08T04:01:05.338Z,1006.7
2017-07-08T04:02:06.717Z,1006.6
2017-07-08T04:03:08.091Z,1006.7
2017-07-08T04:04:09.461Z,1006.7
2017-07-08T04:05:10.835Z,1006.7
2017-07-08T04:06:12.210Z,1006.7
2017-07-08T04:07:13.587Z,1006.7
2017-07-08T04:08:14.963Z,1006.7
2017-07-08T04:09:16.338Z,1006.8
2017-07-08T04:10:17.712Z,1006.8
2017-07-08T04:11:19.082Z,1006.8
2017-07-08T04:12:20.456Z,1006.8
2017-07-08T04:13:21.836Z,1006.7
2017-07-08T04:14:23.212Z,1006.7
2017-07-08T04:15:24.589Z,1006.8
2017-07-08T04:16:25.962Z,1006.8
2017-07-08T04:17:27.341Z,1006.8
2017-07-08T04:18:28.713Z,1006.8
2017-07-08T04:19:30.086Z,1006.7
2017-07-08T04:20:31.464Z,1006.8
2017-07-08T04:21:32.839Z,1006.7
2017-07-08T04:22:34.213Z,1006.7
2017-07-08T04:23:35.589Z,1006.7
2017-07-08T04:24:36.963Z,1006.7
2017-07-08T04:25:38.337Z,1006.7
2017-07-08T04:26:39.713Z,1006.8
2017-07-08T04:27:41.090Z,1006.8
2017-07-08T04:28:42.466Z,1006.8
2017-07-08T04:29:43.842Z,1006.8
2017-07-08T04:30:45.220Z,1006.8
2017-07-08T04:31:46.642Z,1006.8
2017-07-08T04:32:47.971Z,1006.8
2017-07-08T04:33:49.349Z,1006.7
2017-07-08T04:34:50.727Z,1006.8
2017-07-08T04:35:52.101Z,1006.8
2017-07-08T04:36:53.478Z,1006.8
2017-07-08T04:37:54.854Z,1006.8
2017-07-08T04:38:56.233Z,1006.7
2017-07-08T04:39:57.604Z,1006.7
2017-07-08T04:40:58.982Z,1006.7
2017-07-08T04:42:00.354Z,1006.7
2017-07-08T04:43:01.733Z,1006.8
2017-07-08T04:44:03.109Z,1006.8
2017-07-08T04:45:04.481Z,1006.8
2017-07-08T04:46:05.859Z,1006.7
2017-07-08T04:47:07.234Z,1006.7
2017-07-08T04:48:08.610Z,1006.8
2017-07-08T04:49:09.984Z,1006.8
2017-07-08T04:50:11.361Z,1006.8
2017-07-08T04:51:12.734Z,1006.8
2017-07-08T04:52:14.109Z,1006.9
2017-07-08T04:53:15.486Z,1006.8
2017-07-08T04:54:16.859Z,1006.8
2017-07-08T04:55:18.233Z,1006.8
2017-07-08T04:56:19.610Z,1006.9
2017-07-08T04:57:20.987Z,1006.8
2017-07-08T04:58:22.362Z,1006.8
2017-07-08T04:59:23.737Z,1006.8
2017-07-08T05:00:25.113Z,1006.9
2017-07-08T05:01:26.484Z,1006.8
2017-07-08T05:02:27.857Z,1006.9
2017-07-08T05:03:29.230Z,1006.9
2017-07-08T05:04:30.610Z,1006.9
2017-07-08T05:05:31.986Z,1006.8
2017-07-08T05:06:33.360Z,1006.8
2017-07-08T05:07:34.734Z,1006.9
2017-07-08T05:08:36.106Z,1006.9
2017-07-08T05:09:37.505Z,1006.9
2017-07-08T05:10:38.944Z,1006.9
2017-07-08T05:11:40.325Z,1006.9
2017-07-08T05:12:41.700Z,1006.9
2017-07-08T05:13:43.076Z,1006.8
2017-07-08T05:14:44.450Z,1006.8
2017-07-08T05:15:45.823Z,1006.8
2017-07-08T05:16:47.200Z,1006.8
2017-07-08T05:17:48.577Z,1006.7
2017-07-08T05:18:49.953Z,1006.8
2017-07-08T05:19:51.330Z,1006.8
2017-07-08T05:20:52.708Z,1006.8
2017-07-08T05:21:54.081Z,1006.7
2017-07-08T05:22:55.455Z,1006.7
2017-07-08T05:23:56.835Z,1006.7
2017-07-08T05:24:58.214Z,1006.7
2017-07-08T05:25:59.586Z,1006.7
2017-07-08T05:27:00.963Z,1006.7
2017-07-08T05:28:02.345Z,1006.6
2017-07-08T05:29:03.724Z,1006.6
2017-07-08T05:30:05.096Z,1006.6
2017-07-08T05:31:06.471Z,1006.6
2017-07-08T05:32:07.846Z,1006.5
2017-07-08T05:33:09.221Z,1006.5
2017-07-08T05:34:10.599Z,1006.5
2017-07-08T05:35:11.977Z,1006.5
2017-07-08T05:36:13.353Z,1006.5
2017-07-08T05:37:14.733Z,1006.5
2017-07-08T05:38:16.128Z,1006.5
2017-07-08T05:39:17.504Z,1006.5
2017-07-08T05:40:18.880Z,1006.5
2017-07-08T05:41:20.257Z,1006.5
2017-07-08T05:42:21.630Z,1006.5
2017-07-08T05:43:23.007Z,1006.5
2017-07-08T05:44:24.381Z,1006.5
2017-07-08T05:45:25.752Z,1006.4
2017-07-08T05:46:27.129Z,1006.4
2017-07-08T05:47:28.506Z,1006.4
2017-07-08T05:48:29.886Z,1006.4
2017-07-08T05:49:31.259Z,1006.5
2017-07-08T05:50:32.639Z,1006.5
2017-07-08T05:51:34.008Z,1006.6
2017-07-08T05:52:35.385Z,1006.6
2017-07-08T05:53:36.791Z,1006.6
2017-07-08T05:54:38.167Z,1006.5
2017-07-08T05:55:39.548Z,1006.5
2017-07-08T05:56:40.919Z,1006.5
2017-07-08T05:57:42.294Z,1006.4
2017-07-08T05:58:43.667Z,1006.4
2017-07-08T05:59:45.045Z,1006.5
2017-07-08T06:00:46.422Z,1006.5
2017-07-08T06:01:47.797Z,1006.5
2017-07-08T06:02:49.174Z,1006.6
2017-07-08T06:03:50.554Z,1006.6
2017-07-08T06:04:51.927Z,1006.6
2017-07-08T06:05:53.301Z,1006.5
2017-07-08T06:06:54.678Z,1006.6
2017-07-08T06:07:56.053Z,1006.6
2017-07-08T06:08:57.430Z,1006.6
2017-07-08T06:09:58.806Z,1006.5
2017-07-08T06:11:00.182Z,1006.5
2017-07-08T06:12:01.558Z,1006.5
2017-07-08T06:13:02.930Z,1006.5
2017-07-08T06:14:04.310Z,1006.5
2017-07-08T06:15:05.685Z,1006.5
2017-07-08T06:16:07.058Z,1006.5
2017-07-08T06:17:08.436Z,1006.6
2017-07-08T06:18:09.859Z,1006.6
2017-07-08T06:19:11.236Z,1006.6
2017-07-08T06:20:12.612Z,1006.6
2017-07-08T06:21:13.989Z,1006.6
2017-07-08T06:22:15.365Z,1006.6
2017-07-08T06:23:16.744Z,1006.6
2017-07-08T06:24:18.122Z,1006.6
2017-07-08T06:25:19.499Z,1006.7
2017-07-08T06:26:20.890Z,1006.7
2017-07-08T06:27:22.344Z,1006.8
2017-07-08T06:28:23.720Z,1006.8
2017-07-08T06:29:25.096Z,1006.8
2017-07-08T06:30:26.525Z,1006.8
2017-07-08T06:31:27.905Z,1006.8
2017-07-08T06:32:29.281Z,1006.8
2017-07-08T06:33:30.661Z,1006.8
2017-07-08T06:34:32.035Z,1006.8
2017-07-08T06:35:33.416Z,1006.9
2017-07-08T06:36:34.804Z,1006.9
2017-07-08T06:37:36.211Z,1006.8
2017-07-08T06:38:37.590Z,1006.8
2017-07-08T06:39:38.965Z,1006.9
2017-07-08T06:40:40.463Z,1006.9
2017-07-08T06:41:41.838Z,1006.9
2017-07-08T06:42:43.209Z,1006.9
2017-07-08T06:43:44.587Z,1006.9
2017-07-08T06:44:45.969Z,1007.0
2017-07-08T06:45:47.344Z,1007.0
2017-07-08T06:46:48.727Z,1006.9
2017-07-08T06:47:50.105Z,1007.0
2017-07-08T06:48:51.473Z,1006.9
2017-07-08T06:49:52.849Z,1006.9
2017-07-08T06:50:54.231Z,1007.0
2017-07-08T06:51:55.599Z,1006.9
2017-07-08T06:52:56.982Z,1007.0
2017-07-08T06:53:58.357Z,1007.0
2017-07-08T06:54:59.735Z,1007.0
2017-07-08T06:56:01.105Z,1007.1
2017-07-08T06:57:02.484Z,1007.1
2017-07-08T06:58:03.862Z,1007.1
2017-07-08T06:59:05.239Z,1007.0
2017-07-08T07:00:06.617Z,1007.1
2017-07-08T07:01:07.991Z,1007.1
2017-07-08T07:02:09.368Z,1007.1
2017-07-08T07:03:10.741Z,1007.1
2017-07-08T07:04:12.123Z,1007.1
2017-07-08T07:05:13.498Z,1007.1
2017-07-08T07:06:14.880Z,1007.2
2017-07-08T07:07:16.255Z,1007.2
2017-07-08T07:08:17.634Z,1007.2
2017-07-08T07:09:19.010Z,1007.2
2017-07-08T07:10:20.400Z,1007.2
2017-07-08T07:11:21.778Z,1007.2
2017-07-08T07:12:23.152Z,1007.2
2017-07-08T07:13:24.530Z,1007.2
2017-07-08T07:14:25.910Z,1007.2
2017-07-08T07:15:27.282Z,1007.1
2017-07-08T07:16:28.658Z,1007.1
2017-07-08T07:17:30.035Z,1007.1
2017-07-08T07:18:31.421Z,1007.1
2017-07-08T07:19:32.805Z,1007.1
2017-07-08T07:20:34.173Z,1007.1
2017-07-08T07:21:35.549Z,1007.1
2017-07-08T07:22:36.926Z,1007.1
2017-07-08T07:23:38.300Z,1007.1
2017-07-08T07:24:39.679Z,1007.1
2017-07-08T07:25:41.058Z,1007.1
2017-07-08T07:26:42.432Z,1007.1
2017-07-08T07:27:43.805Z,1007.1
2017-07-08T07:28:45.183Z,1007.1
2017-07-08T07:29:46.562Z,1007.1
2017-07-08T07:30:47.943Z,1007.1
2017-07-08T07:31:49.320Z,1007.1
2017-07-08T07:32:50.695Z,1007.1
2017-07-08T07:33:52.072Z,1007.1
2017-07-08T07:34:53.445Z,1007.1
2017-07-08T07:35:54.822Z,1007.1
2017-07-08T07:36:56.197Z,1007.0
2017-07-08T07:37:57.570Z,1007.0
2017-07-08T07:38:58.948Z,1007.1
2017-07-08T07:40:00.321Z,1007.1
2017-07-08T07:41:01.701Z,1007.0
2017-07-08T07:42:03.078Z,1007.0
2017-07-08T07:43:04.452Z,1007.0
2017-07-08T07:44:05.831Z,1007.0
2017-07-08T07:45:07.205Z,1007.1
2017-07-08T07:46:08.577Z,1007.0
2017-07-08T07:47:09.955Z,1007.0
2017-07-08T07:48:11.330Z,1007.0
2017-07-08T07:49:12.707Z,1007.0
2017-07-08T07:50:14.083Z,1007.0
2017-07-08T07:51:15.457Z,1007.0
2017-07-08T07:52:16.834Z,1007.0
2017-07-08T07:53:18.209Z,1007.0
2017-07-08T07:54:19.586Z,1007.0
2017-07-08T07:55:20.962Z,1007.1
2017-07-08T07:56:22.339Z,1007.0
2017-07-08T07:57:23.711Z,1007.1
2017-07-08T07:58:25.119Z,1007.1
2017-07-08T07:59:26.504Z,1007.1
2017-07-08T08:00:27.891Z,1007.2
2017-07-08T08:01:29.268Z,1007.2
2017-07-08T08:02:30.646Z,1007.1
2017-07-08T08:03:32.021Z,1007.1
2017-07-08T08:04:33.400Z,1007.1
2017-07-08T08:05:34.775Z,1007.1
2017-07-08T08:06:36.145Z,1007.1
2017-07-08T08:07:37.522Z,1007.2
2017-07-08T08:08:38.897Z,1007.2
2017-07-08T08:09:40.275Z,1007.2
2017-07-08T08:10:41.650Z,1007.1
2017-07-08T08:11:43.023Z,1007.1
2017-07-08T08:12:44.399Z,1007.1
2017-07-08T08:13:45.773Z,1007.1
2017-07-08T08:14:47.149Z,1007.1
2017-07-08T08:15:48.525Z,1007.1
2017-07-08T08:16:49.903Z,1007.1
2017-07-08T08:17:51.278Z,1007.1
2017-07-08T08:18:53.072Z,1007.1
2017-07-08T08:19:54.460Z,1007.1
2017-07-08T08:20:55.836Z,1007.1
2017-07-08T08:21:57.216Z,1007.1
2017-07-08T08:22:58.592Z,1007.1
2017-07-08T08:23:59.970Z,1007.1
2017-07-08T08:25:01.346Z,1007.1
2017-07-08T08:26:02.747Z,1007.2
2017-07-08T08:27:04.122Z,1007.2
2017-07-08T08:28:05.497Z,1007.2
2017-07-08T08:29:06.876Z,1007.2
2017-07-08T08:30:08.254Z,1007.2
2017-07-08T08:31:09.628Z,1007.2
2017-07-08T08:32:11.008Z,1007.2
2017-07-08T08:33:12.382Z,1007.2
2017-07-08T08:34:13.760Z,1007.2
2017-07-08T08:35:15.135Z,1007.2
2017-07-08T08:36:16.668Z,1007.2
2017-07-08T08:37:18.033Z,1007.2
2017-07-08T08:38:19.413Z,1007.2
2017-07-08T08:39:20.787Z,1007.2
2017-07-08T08:40:22.163Z,1007.2
2017-07-08T08:41:23.541Z,1007.2
2017-07-08T08:42:24.914Z,1007.3
2017-07-08T08:43:26.292Z,1007.2
2017-07-08T08:44:27.666Z,1007.2
2017-07-08T08:45:29.047Z,1007.3
2017-07-08T08:46:30.423Z,1007.3
2017-07-08T08:47:31.799Z,1007.3
2017-07-08T08:48:33.177Z,1007.3
2017-07-08T08:49:34.556Z,1007.3
2017-07-08T08:50:35.927Z,1007.3
2017-07-08T08:51:37.303Z,1007.3
2017-07-08T08:52:38.680Z,1007.3
2017-07-08T08:53:40.056Z,1007.3
2017-07-08T08:54:41.433Z,1007.3
2017-07-08T08:55:42.812Z,1007.3
2017-07-08T08:56:44.187Z,1007.3
2017-07-08T08:57:45.561Z,1007.3
2017-07-08T08:58:46.937Z,1007.3
2017-07-08T08:59:48.313Z,1007.3
2017-07-08T09:00:49.686Z,1007.3
2017-07-08T09:01:51.066Z,1007.3
2017-07-08T09:02:52.444Z,1007.3
2017-07-08T09:03:53.818Z,1007.2
2017-07-08T09:04:55.193Z,1007.3
2017-07-08T09:05:56.571Z,1007.3
2017-07-08T09:06:57.946Z,1007.3
2017-07-08T09:07:59.417Z,1007.3
2017-07-08T09:09:00.790Z,1007.3
2017-07-08T09:10:02.173Z,1007.3
2017-07-08T09:11:03.549Z,1007.2
2017-07-08T09:12:04.923Z,1007.2
2017-07-08T09:13:06.306Z,1007.2
2017-07-08T09:14:07.675Z,1007.3
2017-07-08T09:15:09.050Z,1007.3
2017-07-08T09:16:10.427Z,1007.3
2017-07-08T09:17:11.804Z,1007.3
2017-07-08T09:18:13.183Z,1007.3
2017-07-08T09:19:14.563Z,1007.3
2017-07-08T09:20:15.939Z,1007.3
2017-07-08T09:21:17.313Z,1007.4
2017-07-08T09:22:18.691Z,1007.4
2017-07-08T09:23:20.069Z,1007.3
2017-07-08T09:24:21.447Z,1007.4
2017-07-08T09:25:22.822Z,1007.4
2017-07-08T09:26:24.199Z,1007.4
2017-07-08T09:27:25.577Z,1007.4
2017-07-08T09:28:26.953Z,1007.4
2017-07-08T09:29:28.331Z,1007.5
2017-07-08T09:30:29.711Z,1007.4
2017-07-08T09:31:31.085Z,1007.4
2017-07-08T09:32:32.465Z,1007.4
2017-07-08T09:33:33.839Z,1007.5
2017-07-08T09:34:35.217Z,1007.5
2017-07-08T09:35:36.592Z,1007.5
2017-07-08T09:36:37.970Z,1007.5
2017-07-08T09:37:39.347Z,1007.5
2017-07-08T09:38:40.720Z,1007.6
2017-07-08T09:39:42.096Z,1007.6
2017-07-08T09:40:43.470Z,1007.5
2017-07-08T09:41:44.844Z,1007.6
2017-07-08T09:42:46.221Z,1007.5
2017-07-08T09:43:47.600Z,1007.5
2017-07-08T09:44:48.974Z,1007.5
2017-07-08T09:45:50.350Z,1007.5
2017-07-08T09:46:51.727Z,1007.5
2017-07-08T09:47:53.100Z,1007.5
2017-07-08T09:48:54.477Z,1007.5
2017-07-08T09:49:55.854Z,1007.5
2017-07-08T09:50:57.229Z,1007.5
2017-07-08T09:51:58.606Z,1007.5
2017-07-08T09:52:59.981Z,1007.5
2017-07-08T09:54:01.354Z,1007.6
2017-07-08T09:55:02.730Z,1007.5
2017-07-08T09:56:04.104Z,1007.5
2017-07-08T09:57:05.482Z,1007.6
2017-07-08T09:58:06.857Z,1007.6
2017-07-08T09:59:08.233Z,1007.6
2017-07-08T10:00:09.617Z,1007.6
2017-07-08T10:01:10.993Z,1007.6
2017-07-08T10:02:12.369Z,1007.6
2017-07-08T10:03:13.745Z,1007.6
2017-07-08T10:04:15.119Z,1007.6
2017-07-08T10:05:16.500Z,1007.6
2017-07-08T10:06:17.888Z,1007.6
2017-07-08T10:07:19.255Z,1007.6
2017-07-08T10:08:20.628Z,1007.6
2017-07-08T10:09:22.001Z,1007.6
2017-07-08T10:10:23.381Z,1007.6
2017-07-08T10:11:24.759Z,1007.7
2017-07-08T10:12:26.137Z,1007.6
2017-07-08T10:13:27.509Z,1007.7
2017-07-08T10:14:28.886Z,1007.7
2017-07-08T10:15:30.261Z,1007.7
2017-07-08T10:16:31.637Z,1007.7
2017-07-08T10:17:33.013Z,1007.7
2017-07-08T10:18:34.389Z,1007.7
2017-07-08T10:19:35.767Z,1007.7
2017-07-08T10:20:37.156Z,1007.7
2017-07-08T10:21:38.525Z,1007.7
2017-07-08T10:22:39.905Z,1007.7
2017-07-08T10:23:41.280Z,1007.7
2017-07-08T10:24:42.655Z,1007.7
2017-07-08T10:25:44.040Z,1007.7
2017-07-08T10:26:45.415Z,1007.7
2017-07-08T10:27:46.792Z,1007.7
2017-07-08T10:28:48.169Z,1007.7
2017-07-08T10:29:49.542Z,1007.7
2017-07-08T10:30:50.923Z,1007.7
2017-07-08T10:31:52.299Z,1007.7
2017-07-08T10:32:53.673Z,1007.7
2017-07-08T10:33:55.049Z,1007.7
2017-07-08T10:34:56.424Z,1007.7
2017-07-08T10:35:57.800Z,1007.7
2017-07-08T10:36:59.175Z,1007.7
2017-07-08T10:38:00.551Z,1007.7
2017-07-08T10:39:01.931Z,1007.7
2017-07-08T10:40:03.304Z,1007.6
2017-07-08T10:41:04.680Z,1007.6
2017-07-08T10:42:06.059Z,1007.6
2017-07-08T10:43:07.432Z,1007.6
2017-07-08T10:44:08.811Z,1007.6
2017-07-08T10:45:10.183Z,1007.6
2017-07-08T10:46:11.555Z,1007.6
2017-07-08T10:47:12.934Z,1007.6
2017-07-08T10:48:14.309Z,1007.5
2017-07-08T10:49:15.688Z,1007.6
2017-07-08T10:50:17.065Z,1007.6
2017-07-08T10:51:18.439Z,1007.6
2017-07-08T10:52:19.831Z,1007.6
2017-07-08T10:53:21.206Z,1007.6
2017-07-08T10:54:22.581Z,1007.6
2017-07-08T10:55:23.958Z,1007.6
2017-07-08T10:56:25.339Z,1007.6
2017-07-08T10:57:26.713Z,1007.6
2017-07-08T10:58:28.091Z,1007.6
2017-07-08T10:59:29.470Z,1007.6
2017-07-08T11:00:30.843Z,1007.6
2017-07-08T11:01:32.222Z,1007.6
2017-07-08T11:02:33.613Z,1007.6
2017-07-08T11:03:35.004Z,1007.5
2017-07-08T11:04:36.378Z,1007.5
2017-07-08T11:05:37.750Z,1007.5
2017-07-08T11:06:39.131Z,1007.5
2017-07-08T11:07:40.509Z,1007.5
2017-07-08T11:08:41.883Z,1007.5
2017-07-08T11:09:43.261Z,1007.5
2017-07-08T11:10:44.639Z,1007.5
2017-07-08T11:11:46.018Z,1007.5
2017-07-08T11:12:47.392Z,1007.5
2017-07-08T11:13:48.767Z,1007.5
2017-07-08T11:14:50.144Z,1007.5
2017-07-08T11:15:51.521Z,1007.4
2017-07-08T11:16:52.902Z,1007.4
2017-07-08T11:17:54.278Z,1007.4
2017-07-08T11:18:55.655Z,1007.4
2017-07-08T11:19:57.033Z,1007.4
2017-07-08T11:20:58.406Z,1007.5
2017-07-08T11:21:59.780Z,1007.4
2017-07-08T11:23:01.157Z,1007.4
2017-07-08T11:24:02.532Z,1007.4
2017-07-08T11:25:03.912Z,1007.4
2017-07-08T11:26:05.291Z,1007.4
2017-07-08T11:27:06.662Z,1007.4
2017-07-08T11:28:08.040Z,1007.5
2017-07-08T11:29:09.416Z,1007.4
2017-07-08T11:30:10.795Z,1007.5
2017-07-08T11:31:12.177Z,1007.5
2017-07-08T11:32:13.589Z,1007.5
2017-07-08T11:33:14.970Z,1007.5
2017-07-08T11:34:16.346Z,1007.5
2017-07-08T11:35:17.721Z,1007.5
2017-07-08T11:36:19.103Z,1007.5
2017-07-08T11:37:20.474Z,1007.4
2017-07-08T11:38:21.856Z,1007.4
2017-07-08T11:39:23.244Z,1007.4
2017-07-08T11:40:24.622Z,1007.4
2017-07-08T11:41:25.999Z,1007.4
2017-07-08T11:42:27.375Z,1007.4
2017-07-08T11:43:28.751Z,1007.4
2017-07-08T11:44:30.129Z,1007.4
2017-07-08T11:45:31.508Z,1007.4
2017-07-08T11:46:32.881Z,1007.4
2017-07-08T11:47:34.259Z,1007.3
2017-07-08T11:48:35.631Z,1007.4
2017-07-08T11:49:37.004Z,1007.3
2017-07-08T11:50:38.386Z,1007.4
2017-07-08T11:51:39.757Z,1007.3
2017-07-08T11:52:41.135Z,1007.3
2017-07-08T11:53:42.510Z,1007.3
2017-07-08T11:54:43.892Z,1007.3
2017-07-08T11:55:45.270Z,1007.3
2017-07-08T11:56:46.647Z,1007.3
2017-07-08T11:57:48.024Z,1007.3
2017-07-08T11:58:49.399Z,1007.3
2017-07-08T11:59:50.776Z,1007.3
2017-07-08T12:00:52.156Z,1007.4
2017-07-08T12:01:53.529Z,1007.3
2017-07-08T12:02:55.113Z,1007.3
2017-07-08T12:03:56.478Z,1007.3
2017-07-08T12:04:57.906Z,1007.4
2017-07-08T12:05:59.247Z,1007.4
2017-07-08T12:07:00.624Z,1007.3
2017-07-08T12:08:02.000Z,1007.3
2017-07-08T12:09:03.395Z,1007.4
2017-07-08T12:10:04.768Z,1007.3
2017-07-08T12:11:06.143Z,1007.3
2017-07-08T12:12:07.518Z,1007.3
2017-07-08T12:13:08.907Z,1007.3
2017-07-08T12:14:10.291Z,1007.3
2017-07-08T12:15:11.665Z,1007.3
2017-07-08T12:16:13.040Z,1007.3
2017-07-08T12:17:14.412Z,1007.2
2017-07-08T12:18:15.789Z,1007.2
2017-07-08T12:19:17.166Z,1007.2
2017-07-08T12:20:18.541Z,1007.2
2017-07-08T12:21:19.917Z,1007.2
2017-07-08T12:22:21.292Z,1007.2
2017-07-08T12:23:22.668Z,1007.1
2017-07-08T12:24:24.046Z,1007.1
2017-07-08T12:25:25.419Z,1007.1
2017-07-08T12:26:26.797Z,1007.1
2017-07-08T12:27:28.171Z,1007.1
2017-07-08T12:28:29.548Z,1007.0
2017-07-08T12:29:30.927Z,1007.0
2017-07-08T12:30:32.304Z,1007.1
2017-07-08T12:31:33.680Z,1007.0
2017-07-08T12:32:35.055Z,1007.0
2017-07-08T12:33:36.429Z,1007.0
2017-07-08T12:34:37.808Z,1007.0
2017-07-08T12:35:39.185Z,1007.0
2017-07-08T12:36:40.560Z,1007.0
2017-07-08T12:37:42.038Z,1007.0
2017-07-08T12:38:43.280Z,1007.0
2017-07-08T12:39:44.655Z,1007.1
2017-07-08T12:40:46.035Z,1007.0
2017-07-08T12:41:47.409Z,1007.1
2017-07-08T12:42:48.785Z,1007.1
2017-07-08T12:43:50.167Z,1007.1
2017-07-08T12:44:51.544Z,1007.0
2017-07-08T12:45:52.918Z,1007.1